»·PEaware :: AAL2389 KSNA-KDFW

AAL2389 :: KSNA-KDFW

FLIGHT INFORMATION

Flight Status: Arrived
Operator:
American Airlines
More flights by this operator :: More flights under this callsign
Pilot: Cody B. (17747)
Aircraft: BOEING 737-800
(B738)
More flights by this aircraft type
Origin: KSNA John Wayne-Orange Co
United States
Destination: KDFW Dallas-Ft Worth Intl
United States
More flights between these airports :: More routes between these airports
Route: +PIGGN2 AVRRY LANCY KA27O KA27U TXO TURKI VKTRY2
File this flight plan on PilotEdge
Remarks: Good Morning
Altitude:
(Current/Filed)
37,000ft
Speed:
(Current/Filed)
450kts
Departed: 04-Jan-18 11:59 AM
Arrived: 04-Jan-18 02:50 PM
Distance/Time
Traveled:
1044nm/2:51
Distance/Time
To Go:
Arrived

Flight Plot

Page will automatically refresh every two minutes.

Flight plan parsing failed; only flown route is shown


Map Options




Map Legend


Flown Route
Filed Route
Departure Airport
Arrival Airport
Navaid (VOR, NDB)
Fix

Horizontal Profiles

Position Reports

Time Latitude Longitude Heading Altitude Ground
Speed
04-Jan-18 11:39 33.679352 -117.862391 118 42ft 0kts
04-Jan-18 11:40 33.679352 -117.862391 118 42ft 0kts
04-Jan-18 11:41 33.679352 -117.862391 118 42ft 0kts
04-Jan-18 11:42 33.679352 -117.862391 118 42ft 0kts
04-Jan-18 11:43 33.679352 -117.862391 118 42ft 0kts
04-Jan-18 11:44 33.679352 -117.862391 118 42ft 0kts
04-Jan-18 11:45 33.679352 -117.862391 118 42ft 0kts
04-Jan-18 11:46 33.679352 -117.862391 118 42ft 0kts
04-Jan-18 11:47 33.679352 -117.862391 118 42ft 0kts
04-Jan-18 11:48 33.679352 -117.862391 118 42ft 0kts
04-Jan-18 11:49 33.679352 -117.862391 118 42ft 0kts
04-Jan-18 11:50 33.679352 -117.862391 118 42ft 0kts
04-Jan-18 11:51 33.679352 -117.862391 118 42ft 0kts
04-Jan-18 11:52 33.679352 -117.862391 118 42ft 0kts
04-Jan-18 11:53 33.679790 -117.862754 174 43ft 2kts
04-Jan-18 11:54 33.680218 -117.862632 134 42ft 0kts
04-Jan-18 11:55 33.680194 -117.862631 216 42ft 0kts
04-Jan-18 11:56 33.680194 -117.862631 216 42ft 0kts
04-Jan-18 11:57 33.680194 -117.862631 216 42ft 0kts
04-Jan-18 11:58 33.680194 -117.862631 216 42ft 0kts
04-Jan-18 11:59 33.680194 -117.862631 216 42ft 0kts
04-Jan-18 12:00 33.679927 -117.863232 327 43ft 4kts
04-Jan-18 12:01 33.680589 -117.863149 331 43ft 0kts
04-Jan-18 12:02 33.681147 -117.864216 298 44ft 0kts
04-Jan-18 12:03 33.681147 -117.864216 298 44ft 0kts
04-Jan-18 12:04 33.681326 -117.864623 294 44ft 5kts
04-Jan-18 12:05 33.672101 -117.871110 208 54ft 154kts
04-Jan-18 12:06 33.615893 -117.895447 177 1990ft 261kts
04-Jan-18 12:07 33.545212 -117.882696 155 5062ft 274kts
04-Jan-18 12:08 33.492389 -117.819025 117 7000ft 291kts
04-Jan-18 12:09 33.478504 -117.726827 84 7001ft 290kts
04-Jan-18 12:10 33.508924 -117.638873 59 8951ft 296kts
04-Jan-18 12:11 33.543253 -117.567246 59 9000ft 299kts
04-Jan-18 12:12 33.582083 -117.463558 90 9820ft 304kts
04-Jan-18 12:13 33.580554 -117.374739 91 11433ft 337kts
04-Jan-18 12:14 33.577913 -117.265245 92 13944ft 348kts
04-Jan-18 12:15 33.600310 -117.130772 74 16539ft 365kts
04-Jan-18 12:16 33.621716 -117.031478 74 18308ft 377kts
04-Jan-18 12:17 33.626911 -116.904758 91 20338ft 391kts
04-Jan-18 12:18 33.622760 -116.772639 91 22290ft 404kts
04-Jan-18 12:19 33.618278 -116.613575 90 24395ft 418kts
04-Jan-18 12:20 33.615130 -116.496415 90 25767ft 427kts
04-Jan-18 12:21 33.611450 -116.354304 90 27647ft 428kts
04-Jan-18 12:22 33.607848 -116.215023 90 29316ft 426kts
04-Jan-18 12:23 33.604162 -116.073983 89 30890ft 424kts
04-Jan-18 12:24 33.635014 -115.941407 65 32183ft 416kts
04-Jan-18 12:25 33.675893 -115.811959 65 33422ft 415kts
04-Jan-18 12:26 33.716667 -115.682614 65 34624ft 413kts
04-Jan-18 12:27 33.757550 -115.554270 62 35596ft 412kts
04-Jan-18 12:28 33.801875 -115.427793 63 36472ft 412kts
04-Jan-18 12:29 33.844913 -115.303013 63 37192ft 415kts
04-Jan-18 12:30 33.890941 -115.169766 63 37229ft 450kts
04-Jan-18 12:31 33.940870 -115.025416 63 37222ft 481kts
04-Jan-18 12:32 33.992084 -114.877694 63 37218ft 479kts
04-Jan-18 12:33 34.043485 -114.730046 63 37220ft 478kts
04-Jan-18 12:34 34.094835 -114.583059 63 37224ft 477kts
04-Jan-18 12:35 34.144384 -114.441669 63 37189ft 477kts
04-Jan-18 12:36 34.186517 -114.321834 63 37182ft 477kts
04-Jan-18 12:37 34.238254 -114.175179 63 37180ft 475kts
04-Jan-18 12:38 34.276592 -114.022379 80 37189ft 485kts
04-Jan-18 12:39 34.292858 -113.861035 80 37187ft 485kts
04-Jan-18 12:40 34.309638 -113.699898 79 37185ft 483kts
04-Jan-18 12:41 34.326623 -113.539286 79 37188ft 483kts
04-Jan-18 12:42 34.343854 -113.378224 79 37188ft 483kts
04-Jan-18 12:43 34.360681 -113.223198 79 37273ft 482kts
04-Jan-18 12:44 34.378282 -113.062638 79 37274ft 481kts
04-Jan-18 12:45 34.396023 -112.902629 79 37275ft 481kts
04-Jan-18 12:46 34.413949 -112.742820 79 37277ft 481kts
04-Jan-18 12:47 34.432033 -112.583440 78 37278ft 479kts
04-Jan-18 12:48 34.450317 -112.424116 78 37278ft 479kts
04-Jan-18 12:49 34.468388 -112.268621 79 37273ft 479kts
04-Jan-18 12:50 34.487099 -112.109263 79 37273ft 478kts
04-Jan-18 12:51 34.501552 -111.949494 87 37284ft 481kts
04-Jan-18 12:52 34.498815 -111.787609 89 37266ft 481kts
04-Jan-18 12:53 34.495184 -111.625626 89 37268ft 480kts
04-Jan-18 12:54 34.491698 -111.464009 88 37269ft 480kts
04-Jan-18 12:55 34.488509 -111.305429 89 37262ft 480kts
04-Jan-18 12:56 34.485497 -111.143941 89 37264ft 480kts
04-Jan-18 12:57 34.482668 -110.982712 89 37265ft 480kts
04-Jan-18 12:58 34.480039 -110.820882 89 37266ft 480kts
04-Jan-18 12:59 34.477638 -110.659610 89 37293ft 480kts
04-Jan-18 13:00 34.475433 -110.498045 89 37286ft 480kts
04-Jan-18 13:01 34.473471 -110.338307 89 37285ft 480kts
04-Jan-18 13:02 34.471744 -110.176381 89 37282ft 481kts
04-Jan-18 13:03 34.470179 -110.014560 89 37283ft 481kts
04-Jan-18 13:04 34.468897 -109.861152 89 37284ft 481kts
04-Jan-18 13:05 34.467763 -109.699316 89 37276ft 482kts
04-Jan-18 13:06 34.466819 -109.536961 89 37277ft 482kts
04-Jan-18 13:07 34.466103 -109.375173 88 37279ft 482kts
04-Jan-18 13:08 34.465628 -109.214819 88 37272ft 484kts
04-Jan-18 13:09 34.465360 -109.052153 87 37274ft 483kts
04-Jan-18 13:10 34.465287 -108.892433 87 37275ft 483kts
04-Jan-18 13:11 34.465428 -108.729989 87 37276ft 483kts
04-Jan-18 13:12 34.465778 -108.567510 87 37251ft 483kts
04-Jan-18 13:13 34.466343 -108.405166 87 37261ft 483kts
04-Jan-18 13:14 34.467121 -108.249646 87 37254ft 483kts
04-Jan-18 13:15 34.468123 -108.086909 87 37253ft 483kts
04-Jan-18 13:16 34.469319 -107.924475 87 37256ft 483kts
04-Jan-18 13:17 34.470748 -107.761958 87 37259ft 483kts
04-Jan-18 13:18 34.472384 -107.599085 87 37248ft 484kts
04-Jan-18 13:19 34.474227 -107.436163 87 37243ft 484kts
04-Jan-18 13:20 34.476317 -107.274900 87 37245ft 484kts
04-Jan-18 13:21 34.478629 -107.111963 87 37246ft 485kts
04-Jan-18 13:22 34.481127 -106.948792 87 37247ft 485kts
04-Jan-18 13:23 34.483840 -106.785841 87 37251ft 485kts
04-Jan-18 13:24 34.486809 -106.622249 87 37246ft 486kts
04-Jan-18 13:25 34.489962 -106.459032 87 37253ft 485kts
04-Jan-18 13:26 34.493305 -106.297682 87 37242ft 486kts
04-Jan-18 13:27 34.496931 -106.133774 87 37248ft 488kts
04-Jan-18 13:28 34.500480 -105.970220 89 37246ft 487kts
04-Jan-18 13:29 34.499290 -105.805834 90 37246ft 487kts
04-Jan-18 13:30 34.497256 -105.641590 90 37250ft 490kts
04-Jan-18 13:31 34.495350 -105.476827 90 37252ft 489kts
04-Jan-18 13:32 34.493690 -105.313956 90 37238ft 490kts
04-Jan-18 13:33 34.492255 -105.148875 90 37194ft 492kts
04-Jan-18 13:34 34.491024 -104.983380 90 37194ft 492kts
04-Jan-18 13:35 34.490004 -104.817919 90 37199ft 492kts
04-Jan-18 13:36 34.489209 -104.651790 89 37197ft 495kts
04-Jan-18 13:37 34.488608 -104.485475 89 37198ft 495kts
04-Jan-18 13:38 34.488272 -104.320856 90 37183ft 495kts
04-Jan-18 13:39 34.488190 -104.153873 89 37180ft 498kts
04-Jan-18 13:40 34.488278 -103.986676 89 37185ft 497kts
04-Jan-18 13:41 34.488614 -103.819362 89 37185ft 497kts
04-Jan-18 13:42 34.489179 -103.651451 89 37183ft 500kts
04-Jan-18 13:43 34.489974 -103.483326 88 37189ft 501kts
04-Jan-18 13:44 34.490964 -103.318000 89 37188ft 500kts
04-Jan-18 13:45 34.492248 -103.149893 89 37193ft 503kts
04-Jan-18 13:46 34.493757 -102.980157 89 37192ft 503kts
04-Jan-18 13:47 34.493262 -102.810911 97 37184ft 502kts
04-Jan-18 13:48 34.473541 -102.643174 98 37197ft 507kts
04-Jan-18 13:49 34.454075 -102.474197 98 37208ft 506kts
04-Jan-18 13:50 34.435164 -102.307452 98 37186ft 506kts
04-Jan-18 13:51 34.416310 -102.138941 98 37190ft 510kts
04-Jan-18 13:52 34.397478 -101.968891 97 37181ft 510kts
04-Jan-18 13:53 34.378920 -101.799235 97 37194ft 509kts
04-Jan-18 13:54 34.360532 -101.628909 97 37197ft 512kts
04-Jan-18 13:55 34.342360 -101.458433 96 37202ft 512kts
04-Jan-18 13:56 34.324644 -101.289737 97 37193ft 512kts
04-Jan-18 13:57 34.306954 -101.119075 97 37193ft 515kts
04-Jan-18 13:58 34.287516 -100.947726 98 37193ft 515kts
04-Jan-18 13:59 34.266659 -100.777178 98 37269ft 515kts
04-Jan-18 14:00 34.245877 -100.605403 97 37271ft 518kts
04-Jan-18 14:01 34.225341 -100.433731 97 37274ft 518kts
04-Jan-18 14:02 34.205388 -100.264749 100 37261ft 518kts
04-Jan-18 14:03 34.157723 -100.100804 111 37262ft 519kts
04-Jan-18 14:04 34.107454 -99.937576 111 37268ft 519kts
04-Jan-18 14:05 34.057812 -99.774511 111 37316ft 519kts
04-Jan-18 14:06 34.008162 -99.610951 111 37318ft 523kts
04-Jan-18 14:07 33.958002 -99.445909 112 37322ft 528kts
04-Jan-18 14:08 33.909116 -99.290729 113 36752ft 494kts
04-Jan-18 14:09 33.861606 -99.139945 112 34345ft 493kts
04-Jan-18 14:10 33.813397 -98.986467 112 31923ft 488kts
04-Jan-18 14:11 33.766521 -98.836501 112 30326ft 457kts
04-Jan-18 14:12 33.721550 -98.694060 112 30343ft 464kts
04-Jan-18 14:13 33.675793 -98.551079 112 30182ft 466kts
04-Jan-18 14:14 33.629863 -98.407156 111 27697ft 452kts
04-Jan-18 14:15 33.592907 -98.290774 110 25671ft 453kts
04-Jan-18 14:16 33.549193 -98.153527 109 23160ft 430kts
04-Jan-18 14:17 33.507084 -98.023369 109 20653ft 409kts
04-Jan-18 14:18 33.467519 -97.900867 109 18173ft 389kts
04-Jan-18 14:19 33.429896 -97.784304 109 15693ft 367kts
04-Jan-18 14:20 33.394678 -97.675171 109 13188ft 338kts
04-Jan-18 14:21 33.348886 -97.585660 127 10716ft 310kts
04-Jan-18 14:22 33.300896 -97.506993 127 9352ft 290kts
04-Jan-18 14:23 33.271159 -97.437056 91 9034ft 290kts
04-Jan-18 14:24 33.265102 -97.327590 92 9012ft 279kts
04-Jan-18 14:25 33.261085 -97.250569 92 9017ft 280kts
04-Jan-18 14:26 33.211240 -97.202658 210 9027ft 275kts
04-Jan-18 14:27 33.177393 -97.271028 294 9036ft 239kts
04-Jan-18 14:28 33.233691 -97.261534 50 9013ft 272kts
04-Jan-18 14:29 33.238578 -97.161824 108 6513ft 290kts
04-Jan-18 14:30 33.217522 -97.092924 105 6019ft 254kts
04-Jan-18 14:31 33.173186 -97.031790 171 5563ft 272kts
04-Jan-18 14:32 33.088407 -97.029216 179 5022ft 259kts
04-Jan-18 14:33 33.029962 -97.029316 180 5003ft 253kts
04-Jan-18 14:34 32.966908 -97.029604 181 5012ft 224kts
04-Jan-18 14:35 32.925678 -96.985117 126 5014ft 224kts
04-Jan-18 14:36 32.874274 -96.982532 228 5038ft 218kts
04-Jan-18 14:37 32.889034 -97.019831 20 5112ft 237kts
04-Jan-18 14:38 32.941088 -96.968508 37 5121ft 247kts
04-Jan-18 14:39 32.996502 -96.954377 320 5163ft 238kts
04-Jan-18 14:40 33.045418 -97.007439 318 5119ft 238kts
04-Jan-18 14:41 33.094043 -97.060505 319 5128ft 239kts
04-Jan-18 14:42 33.142223 -97.113158 319 5132ft 240kts
04-Jan-18 14:43 33.191307 -97.166890 320 5121ft 233kts
04-Jan-18 14:44 33.238072 -97.218121 320 5133ft 232kts
04-Jan-18 14:45 33.267343 -97.278637 237 5044ft 227kts
04-Jan-18 14:46 33.224883 -97.254809 78 5051ft 257kts
04-Jan-18 14:47 33.274690 -97.248223 285 5044ft 237kts
04-Jan-18 14:48 33.229744 -97.268579 139 5076ft 255kts
04-Jan-18 14:49 33.180135 -97.206134 130 4932ft 263kts
04-Jan-18 14:50 33.129713 -97.141927 130 4095ft 264kts
04-Jan-18 14:51 33.081895 -97.081142 130 3716ft 267kts
04-Jan-18 14:52 33.023828 -97.038430 165 2593ft 239kts
04-Jan-18 14:53 32.966990 -97.029836 176 1616ft 169kts
04-Jan-18 14:54 32.927971 -97.029807 178 848ft 133kts
04-Jan-18 14:55 32.902290 -97.029841 181 571ft 50kts
04-Jan-18 14:56 32.891303 -97.029895 185 568ft 29kts
04-Jan-18 14:57 32.887839 -97.030751 206 570ft 0kts
04-Jan-18 14:58 32.887839 -97.030751 206 570ft 0kts
04-Jan-18 14:59 32.887839 -97.030751 206 570ft 0kts
04-Jan-18 15:00 32.887108 -97.031253 210 571ft 8kts
04-Jan-18 15:01 32.886021 -97.032736 267 572ft 3kts
04-Jan-18 15:02 32.886018 -97.034545 270 572ft 0kts
04-Jan-18 15:03 32.886018 -97.034545 270 572ft 0kts
04-Jan-18 15:04 32.886167 -97.034908 85 572ft 3kts
04-Jan-18 15:05 32.886011 -97.032884 89 572ft 13kts
04-Jan-18 15:06 32.891699 -97.031981 359 573ft 26kts
04-Jan-18 15:07 32.899535 -97.031933 357 576ft 29kts
04-Jan-18 15:08 32.903293 -97.032951 270 584ft 3kts
04-Jan-18 15:09 32.903294 -97.033393 270 585ft 6kts
04-Jan-18 15:10 32.903759 -97.033989 356 586ft 9kts

Navigation Log

Ident Type
Flight plan parsing failed, navigation log unavailable